Time;durP1;ratioP1;P1;durP2;ratioP2;P2;SDS_P1;SDS_P2;PMS_P1;PMS_P2;Temp;Humidity;BMP_temperature;BMP_pressure;BME280_temperature;BME280_humidity;BME280_pressure;Samples;Min_cycle;Max_cycle;Signal;HPM_P1;HPM_P2
2023/09/26 00:01:00;;;;;;;21.10;13.93;;;;;;;-144.73;100.00;54448.75;5055550;28;20033;-72
2023/09/26 00:03:26;;;;;;;13.50;9.23;;;;;;;-144.73;100.00;54489.81;5056566;28;20028;-72
2023/09/26 00:05:54;;;;;;;17.30;10.70;;;;;;;-144.73;100.00;54432.31;5041553;28;20098;-72
2023/09/26 00:08:19;;;;;;;15.18;10.05;;;;;;;-144.73;100.00;54469.28;5028246;28;20017;-72
2023/09/26 00:10:46;;;;;;;14.63;8.32;;;;;;;-144.73;100.00;54493.91;5057959;28;20102;-73
2023/09/26 00:13:13;;;;;;;11.70;7.85;;;;;;;-144.73;100.00;54461.06;5039883;28;20049;-72
2023/09/26 00:15:39;;;;;;;14.95;9.23;;;;;;;-144.73;100.00;54450.81;5034504;28;20032;-72
2023/09/26 00:18:05;;;;;;;11.55;7.68;;;;;;;-144.73;100.00;54465.16;5049260;28;20099;-72
2023/09/26 00:20:32;;;;;;;9.68;7.22;;;;;;;-144.73;100.00;54489.81;5051441;28;20029;-72
2023/09/26 00:22:58;;;;;;;11.68;8.40;;;;;;;-144.73;100.00;54481.59;5057368;28;20028;-73
2023/09/26 00:25:24;;;;;;;15.48;7.80;;;;;;;-144.73;100.00;54481.59;5034108;28;20033;-73
2023/09/26 00:27:50;;;;;;;11.52;8.10;;;;;;;-144.73;100.00;54428.22;5056663;28;20040;-73
2023/09/26 00:30:15;;;;;;;15.20;8.10;;;;;;;-144.73;100.00;54448.75;5049437;28;20041;-72
2023/09/26 00:32:41;;;;;;;19.73;8.70;;;;;;;-144.73;100.00;54469.28;5029015;28;20044;-73
2023/09/26 00:35:11;;;;;;;12.88;9.13;;;;;;;-144.73;100.00;54450.81;5032646;28;20075;-72
2023/09/26 00:37:57;;;;;;;14.00;9.23;;;;;;;-144.73;100.00;54430.28;5032752;28;20039;-72
2023/09/26 00:40:23;;;;;;;16.73;8.57;;;;;;;-144.73;100.00;54448.75;5058864;28;20463;-73
2023/09/26 00:42:49;;;;;;;19.73;10.98;;;;;;;-144.73;100.00;54452.84;5052691;28;20090;-72
2023/09/26 00:45:15;;;;;;;13.40;8.18;;;;;;;-144.73;100.00;54424.13;5031777;28;20036;-72
2023/09/26 00:47:41;;;;;;;13.77;7.70;;;;;;;-144.73;100.00;54477.47;5056956;28;20082;-72
2023/09/26 00:50:14;;;;;;;10.85;7.57;;;;;;;-144.73;100.00;54461.06;5053740;28;20044;-73
2023/09/26 00:52:45;;;;;;;12.02;6.95;;;;;;;-144.73;100.00;54461.06;5052346;28;20033;-73
2023/09/26 00:55:12;;;;;;;;;;;;;;;-144.73;100.00;54428.22;5053771;28;20032;-72
2023/09/26 00:57:39;;;;;;;9.55;6.32;;;;;;;-144.73;100.00;54477.47;5042600;28;20059;-72
2023/09/26 01:00:06;;;;;;;11.68;7.00;;;;;;;-144.73;100.00;54469.28;5034591;28;20044;-73
2023/09/26 01:02:32;;;;;;;9.38;7.18;;;;;;;-144.73;100.00;54452.84;5050032;28;20021;-72
2023/09/26 01:04:57;;;;;;;9.10;6.95;;;;;;;-144.73;100.00;54432.31;5033914;28;20041;-73
2023/09/26 01:07:23;;;;;;;15.48;8.05;;;;;;;-144.73;100.00;54448.75;5056615;28;20037;-73
2023/09/26 01:09:49;;;;;;;14.80;8.13;;;;;;;-144.73;100.00;54456.97;5034107;28;20041;-73
2023/09/26 01:12:16;;;;;;;18.15;7.90;;;;;;;-144.73;100.00;54415.91;5032677;28;20083;-73
2023/09/26 01:14:41;;;;;;;16.00;8.32;;;;;;;-144.73;100.00;54473.38;5031745;28;20403;-72
2023/09/26 01:17:07;;;;;;;11.70;8.30;;;;;;;-144.73;100.00;54456.97;5052233;28;20028;-73
2023/09/26 01:19:33;;;;;;;13.50;8.25;;;;;;;-144.73;100.00;54436.44;5031334;28;20360;-73
2023/09/26 01:21:59;;;;;;;13.50;7.32;;;;;;;-144.73;100.00;54448.75;5031495;28;20033;-73
2023/09/26 01:24:24;;;;;;;11.23;8.18;;;;;;;-144.73;100.00;54432.31;5056955;28;20032;-73
2023/09/26 01:26:50;;;;;;;9.85;6.78;;;;;;;-144.73;100.00;54485.69;5050332;28;20025;-73
2023/09/26 01:29:15;;;;;;;14.40;7.88;;;;;;;-144.73;100.00;54469.28;5034993;28;20083;-72
2023/09/26 01:31:41;;;;;;;10.10;6.95;;;;;;;-144.73;100.00;54469.28;5057948;28;20147;-72
2023/09/26 01:34:07;;;;;;;15.18;8.20;;;;;;;-144.73;100.00;54465.16;5034401;28;20099;-73
2023/09/26 01:36:33;;;;;;;11.68;8.05;;;;;;;-144.73;100.00;54452.84;5032883;28;20071;-72
2023/09/26 01:38:58;;;;;;;22.88;8.27;;;;;;;-144.73;100.00;54448.75;5056821;28;20064;-73
2023/09/26 01:41:24;;;;;;;12.98;8.23;;;;;;;-144.73;100.00;54420.00;5033982;28;20024;-73
2023/09/26 01:43:50;;;;;;;14.30;9.20;;;;;;;-144.73;100.00;54452.84;5034432;28;20113;-73
2023/09/26 01:46:18;;;;;;;13.48;8.30;;;;;;;-144.73;100.00;54473.38;5056912;28;20021;-73
2023/09/26 01:48:43;;;;;;;13.38;8.48;;;;;;;-144.73;100.00;54444.66;5057110;28;20071;-72
2023/09/26 01:51:09;;;;;;;17.67;7.93;;;;;;;-144.73;100.00;54420.00;5036987;28;20028;-72
2023/09/26 01:53:35;;;;;;;10.23;6.43;;;;;;;-144.73;100.00;54469.28;5031108;28;20021;-72
2023/09/26 01:56:01;;;;;;;13.27;8.32;;;;;;;-144.73;100.00;54454.91;5030576;28;20170;-73
2023/09/26 01:58:27;;;;;;;13.45;7.18;;;;;;;-144.73;100.00;54502.13;5030269;28;20103;-72
2023/09/26 02:00:53;;;;;;;10.93;7.22;;;;;;;-144.73;100.00;54456.97;5048959;28;20164;-72
2023/09/26 02:03:19;;;;;;;13.35;8.02;;;;;;;-144.73;100.00;54456.97;5056465;28;20029;-71
2023/09/26 02:05:45;;;;;;;14.07;7.53;;;;;;;-144.73;100.00;54481.59;5057110;28;20115;-72
2023/09/26 02:08:11;;;;;;;14.05;7.00;;;;;;;-144.73;100.00;54469.28;5054177;28;20080;-72
2023/09/26 02:10:36;;;;;;;9.45;6.93;;;;;;;-144.73;100.00;54469.28;5034596;28;20029;-72
2023/09/26 02:13:02;;;;;;;10.65;7.32;;;;;;;-144.73;100.00;54465.16;5039028;28;20057;-72
2023/09/26 02:15:27;;;;;;;14.90;8.55;;;;;;;-144.73;100.00;54456.97;5052935;28;20121;-72
2023/09/26 02:17:52;;;;;;;15.75;8.73;;;;;;;-144.73;100.00;54461.06;5053142;28;20032;-72
2023/09/26 02:20:19;;;;;;;11.07;7.53;;;;;;;-144.73;100.00;54456.97;5040011;28;20497;-72
2023/09/26 02:22:51;;;;;;;15.57;8.52;;;;;;;-144.73;100.00;54444.66;5033777;28;20035;-72
2023/09/26 02:25:20;;;;;;;;;;;;;;;-144.73;100.00;54485.69;5048982;28;20033;-72
2023/09/26 02:27:46;;;;;;;15.20;8.32;;;;;;;-144.73;100.00;54477.47;5052749;28;19916;-72
2023/09/26 02:30:15;;;;;;;12.85;8.95;;;;;;;-144.73;100.00;54448.75;5039964;28;20396;-72
2023/09/26 02:32:41;;;;;;;15.10;9.35;;;;;;;-144.73;100.00;54469.28;5034899;28;20021;-72
2023/09/26 02:35:08;;;;;;;12.13;8.32;;;;;;;-144.73;100.00;54420.00;5035438;28;20040;-72
2023/09/26 02:37:34;;;;;;;13.00;8.10;;;;;;;-144.73;100.00;54461.06;5046714;28;20051;-72
2023/09/26 02:40:01;;;;;;;13.63;8.10;;;;;;;-144.73;100.00;54471.31;5052125;28;20068;-72
2023/09/26 02:42:26;;;;;;;13.02;7.50;;;;;;;-144.73;100.00;54444.66;5041599;28;20037;-72
2023/09/26 02:44:52;;;;;;;8.07;6.53;;;;;;;-144.73;100.00;54456.97;5035454;28;20067;-72
2023/09/26 02:47:17;;;;;;;10.35;7.20;;;;;;;-144.73;100.00;54456.97;5039097;28;20040;-72
2023/09/26 02:49:43;;;;;;;12.82;7.95;;;;;;;-144.73;100.00;54438.50;5053329;28;20064;-72
2023/09/26 02:52:08;;;;;;;11.00;7.72;;;;;;;-144.73;100.00;54465.16;5058158;28;20033;-72
2023/09/26 02:54:34;;;;;;;11.10;7.75;;;;;;;-144.73;100.00;54467.22;5036759;28;20063;-72
2023/09/26 02:56:59;;;;;;;10.35;8.23;;;;;;;-144.73;100.00;54512.38;5033747;28;20045;-72
2023/09/26 02:59:24;;;;;;;11.82;7.38;;;;;;;-144.73;100.00;54485.69;5059276;28;20098;-72
2023/09/26 03:01:50;;;;;;;9.68;7.30;;;;;;;-144.73;100.00;54461.06;5062815;28;20103;-72
2023/09/26 03:04:16;;;;;;;14.93;8.05;;;;;;;-144.73;100.00;54448.75;5037701;28;20033;-72
2023/09/26 03:06:41;;;;;;;15.63;10.52;;;;;;;-144.73;100.00;54452.84;5037972;28;20108;-72
2023/09/26 03:09:07;;;;;;;16.83;8.60;;;;;;;-144.73;100.00;54465.16;5054884;28;20040;-72
2023/09/26 03:11:32;;;;;;;9.63;7.38;;;;;;;-144.73;100.00;54446.69;5066629;28;20055;-72
2023/09/26 03:13:58;;;;;;;10.77;8.05;;;;;;;-144.73;100.00;54477.47;5033253;28;20037;-72
2023/09/26 03:16:23;;;;;;;12.07;7.28;;;;;;;-144.73;100.00;54440.53;5065509;28;20070;-72
2023/09/26 03:18:53;;;;;;;20.60;9.57;;;;;;;-144.73;100.00;54473.38;5042322;28;20021;-72
2023/09/26 03:21:18;;;;;;;18.75;8.18;;;;;;;-144.73;100.00;54452.84;5035274;28;20035;-72
2023/09/26 03:23:43;;;;;;;13.40;8.95;;;;;;;-144.73;100.00;54456.97;5039525;28;20024;-72
2023/09/26 03:26:10;;;;;;;14.98;9.00;;;;;;;-144.73;100.00;54467.22;5036653;28;20037;-72
2023/09/26 03:28:36;;;;;;;12.98;7.63;;;;;;;-144.73;100.00;54502.13;5040117;28;20024;-72
2023/09/26 03:31:05;;;;;;;16.05;8.50;;;;;;;-144.73;100.00;54489.81;5035972;28;20041;-72
2023/09/26 03:33:32;;;;;;;13.80;8.85;;;;;;;-144.73;100.00;54485.69;5033404;28;20029;-72
2023/09/26 03:35:58;;;;;;;11.82;9.02;;;;;;;-144.73;100.00;54495.97;5032220;28;20048;-72
2023/09/26 03:38:23;;;;;;;10.38;8.45;;;;;;;-144.73;100.00;54461.06;5033349;28;20020;-73
2023/09/26 03:40:56;;;;;;;11.27;8.55;;;;;;;-144.73;100.00;54498.00;5033153;28;20036;-72
2023/09/26 03:43:22;;;;;;;11.18;8.25;;;;;;;-144.73;100.00;54452.84;5043764;28;20061;-72
2023/09/26 03:45:47;;;;;;;15.48;8.32;;;;;;;-144.73;100.00;54430.28;5033048;28;20045;-72
2023/09/26 03:48:12;;;;;;;13.18;8.27;;;;;;;-144.73;100.00;54450.81;5051744;28;20078;-71
2023/09/26 03:50:40;;;;;;;14.88;8.15;;;;;;;-144.73;100.00;54454.91;5059816;28;20124;-72
2023/09/26 03:53:05;;;;;;;15.30;8.02;;;;;;;-144.73;100.00;54506.22;5038876;28;20028;-72
2023/09/26 03:55:30;;;;;;;12.50;9.48;;;;;;;-144.73;100.00;54481.59;5034218;28;20056;-72
2023/09/26 03:57:56;;;;;;;15.40;9.52;;;;;;;-144.73;100.00;54477.47;5053245;28;20056;-72
2023/09/26 04:00:25;;;;;;;16.20;9.77;;;;;;;-144.73;100.00;54481.59;5050702;28;20037;-72
2023/09/26 04:02:51;;;;;;;14.40;9.57;;;;;;;-144.73;100.00;54452.84;5060240;28;20111;-72
2023/09/26 04:05:16;;;;;;;14.23;10.10;;;;;;;-144.73;100.00;54481.59;5049703;28;20117;-72
2023/09/26 04:07:42;;;;;;;12.98;8.65;;;;;;;-144.73;100.00;54452.84;5032896;28;20025;-72
2023/09/26 04:10:08;;;;;;;14.95;9.40;;;;;;;-144.73;100.00;54477.47;5033229;28;20100;-72
2023/09/26 04:12:33;;;;;;;14.98;9.30;;;;;;;-144.73;100.00;54465.16;5051416;28;20025;-72
2023/09/26 04:14:59;;;;;;;12.77;9.23;;;;;;;-144.73;100.00;54485.69;5055853;28;20519;-72
2023/09/26 04:17:25;;;;;;;17.73;8.43;;;;;;;-144.73;100.00;54436.44;5033658;28;20603;-72
2023/09/26 04:19:50;;;;;;;13.60;9.35;;;;;;;-144.73;100.00;54469.28;5043975;28;20040;-72
2023/09/26 04:22:16;;;;;;;15.00;9.50;;;;;;;-144.73;100.00;54489.81;5067353;28;20032;-72
2023/09/26 04:24:41;;;;;;;14.18;9.52;;;;;;;-144.73;100.00;54487.75;5032149;28;20036;-72
2023/09/26 04:27:06;;;;;;;19.52;10.50;;;;;;;-144.73;100.00;54456.97;5035495;28;20048;-72
2023/09/26 04:29:33;;;;;;;38.55;26.02;;;;;;;-144.73;100.00;54489.81;5037878;28;20034;-72
2023/09/26 04:31:59;;;;;;;19.80;12.43;;;;;;;-144.73;100.00;54440.53;5054895;28;20158;-72
2023/09/26 04:34:27;;;;;;;14.13;10.10;;;;;;;-144.73;100.00;54481.59;5035090;28;20083;-72
2023/09/26 04:36:53;;;;;;;16.20;9.65;;;;;;;-144.73;100.00;54469.28;5054706;28;20032;-71
2023/09/26 04:39:18;;;;;;;18.70;10.25;;;;;;;-144.73;100.00;54477.47;5049672;28;20351;-72
2023/09/26 04:41:45;;;;;;;13.95;8.80;;;;;;;-144.73;100.00;54508.28;5058187;28;20025;-72
2023/09/26 04:44:10;;;;;;;18.33;10.48;;;;;;;-144.73;100.00;54461.06;5051970;28;20033;-72
2023/09/26 04:46:36;;;;;;;18.63;10.38;;;;;;;-144.73;100.00;54491.84;5032001;28;20459;-71
2023/09/26 04:49:01;;;;;;;15.20;10.55;;;;;;;-144.73;100.00;54465.16;5033204;28;20071;-74
2023/09/26 04:51:27;;;;;;;19.80;9.65;;;;;;;-144.73;100.00;54424.13;5048467;28;20028;-72
2023/09/26 04:53:52;;;;;;;15.63;10.95;;;;;;;-144.73;100.00;54444.66;5031983;28;20512;-71
2023/09/26 04:56:18;;;;;;;20.50;10.73;;;;;;;-144.73;100.00;54481.59;5050408;28;20498;-72
2023/09/26 04:58:43;;;;;;;21.55;12.80;;;;;;;-144.73;100.00;54510.31;5045065;28;20036;-72
2023/09/26 05:01:13;;;;;;;16.35;9.30;;;;;;;-144.73;100.00;54461.06;5051522;28;20075;-72
2023/09/26 05:03:39;;;;;;;14.98;10.73;;;;;;;-144.73;100.00;54481.59;5033807;28;20040;-72
2023/09/26 05:06:07;;;;;;;16.55;9.80;;;;;;;-144.73;100.00;54448.75;5032382;28;20029;-72
2023/09/26 05:08:32;;;;;;;16.92;11.02;;;;;;;-144.73;100.00;54444.66;5050715;28;20036;-72
2023/09/26 05:10:57;;;;;;;16.00;11.07;;;;;;;-144.73;100.00;54452.84;5037940;28;20033;-73
2023/09/26 05:13:23;;;;;;;13.13;9.25;;;;;;;-144.73;100.00;54465.16;5031592;28;20472;-72
2023/09/26 05:15:49;;;;;;;15.57;9.15;;;;;;;-144.73;100.00;54473.38;5048086;28;20096;-72
2023/09/26 05:18:14;;;;;;;18.83;12.18;;;;;;;-144.73;100.00;54434.38;5033399;28;20032;-73
2023/09/26 05:20:39;;;;;;;16.90;11.80;;;;;;;-144.73;100.00;54485.69;5032204;28;20056;-72
2023/09/26 05:23:05;;;;;;;16.50;10.30;;;;;;;-144.73;100.00;54481.59;5033251;28;20043;-72
2023/09/26 05:25:33;;;;;;;14.65;9.95;;;;;;;-144.73;100.00;54463.13;5053314;28;20056;-73
2023/09/26 05:27:59;;;;;;;15.48;10.45;;;;;;;-144.73;100.00;54473.38;5027847;28;20025;-72
2023/09/26 05:30:24;;;;;;;14.45;10.43;;;;;;;-144.73;100.00;54498.00;5054816;28;20030;-72
2023/09/26 05:32:50;;;;;;;17.00;10.73;;;;;;;-144.73;100.00;54444.66;5032469;28;20497;-73
2023/09/26 05:35:15;;;;;;;21.45;10.43;;;;;;;-144.73;100.00;54467.22;5057810;28;20029;-73
2023/09/26 05:37:41;;;;;;;16.25;10.40;;;;;;;-144.73;100.00;54456.97;5036256;28;20028;-73
2023/09/26 05:40:07;;;;;;;15.85;9.70;;;;;;;-144.73;100.00;54473.38;5059142;28;20398;-72
2023/09/26 05:42:33;;;;;;;23.85;9.60;;;;;;;-144.73;100.00;54477.47;5035578;28;20044;-73
2023/09/26 05:44:58;;;;;;;18.85;10.32;;;;;;;-144.73;100.00;54463.13;5039750;28;20029;-73
2023/09/26 05:47:24;;;;;;;19.02;10.93;;;;;;;-144.73;100.00;54481.59;5054581;28;20044;-72
2023/09/26 05:49:50;;;;;;;17.50;11.30;;;;;;;-144.73;100.00;54461.06;5041091;28;20057;-72
2023/09/26 05:52:17;;;;;;;16.88;10.48;;;;;;;-144.73;100.00;54465.16;5051551;28;20037;-73
2023/09/26 05:54:42;;;;;;;18.88;11.20;;;;;;;-144.73;100.00;54465.16;5036430;28;20033;-73
2023/09/26 05:57:08;;;;;;;18.75;10.02;;;;;;;-144.73;100.00;54456.97;5053745;28;20116;-73
2023/09/26 05:59:33;;;;;;;22.73;11.00;;;;;;;-144.73;100.00;54518.53;5038528;28;20028;-72
2023/09/26 06:01:59;;;;;;;21.40;12.75;;;;;;;-144.73;100.00;54452.84;5040013;28;20100;-73
2023/09/26 06:04:24;;;;;;;17.65;11.70;;;;;;;-144.73;100.00;54454.91;5046656;28;20029;-72
2023/09/26 06:06:50;;;;;;;17.55;11.75;;;;;;;-144.73;100.00;54467.22;5060030;28;20108;-72
2023/09/26 06:09:15;;;;;;;19.67;11.77;;;;;;;-144.73;100.00;54473.38;5059714;28;20059;-72
2023/09/26 06:11:40;;;;;;;24.15;10.57;;;;;;;-144.73;100.00;54444.66;5058665;28;20017;-72
2023/09/26 06:14:06;;;;;;;16.55;11.40;;;;;;;-144.73;100.00;54473.38;5049790;28;20032;-73
2023/09/26 06:16:31;;;;;;;22.08;13.15;;;;;;;-144.73;100.00;54459.00;5036757;28;20040;-72
2023/09/26 06:18:57;;;;;;;22.98;11.50;;;;;;;-144.73;100.00;54504.16;5040117;28;20033;-73
2023/09/26 06:21:22;;;;;;;34.35;20.13;;;;;;;-144.73;100.00;54444.66;5037102;28;20029;-72
2023/09/26 06:23:48;;;;;;;30.08;14.77;;;;;;;-144.73;100.00;54461.06;5053072;28;20065;-73
2023/09/26 06:26:14;;;;;;;28.80;13.05;;;;;;;-144.73;100.00;54477.47;5034295;28;20029;-72
2023/09/26 06:28:40;;;;;;;36.58;12.18;;;;;;;-144.73;100.00;54456.97;5039017;28;20054;-72
2023/09/26 06:31:07;;;;;;;22.58;11.45;;;;;;;-144.73;100.00;54510.31;5037451;28;20025;-73
2023/09/26 06:33:32;;;;;;;26.38;12.07;;;;;;;-144.73;100.00;54465.16;5052281;28;20036;-73
2023/09/26 06:35:58;;;;;;;27.00;10.45;;;;;;;-144.73;100.00;54473.38;5036987;28;20029;-73
2023/09/26 06:38:23;;;;;;;20.60;10.75;;;;;;;-144.73;100.00;54473.38;5049811;28;20021;-73
2023/09/26 06:40:48;;;;;;;26.50;11.48;;;;;;;-144.73;100.00;54461.06;5030050;28;20393;-74
2023/09/26 06:43:14;;;;;;;25.48;11.63;;;;;;;-144.73;100.00;54473.38;5056995;28;20021;-73
2023/09/26 06:45:39;;;;;;;27.05;12.25;;;;;;;-144.73;100.00;54461.06;5032024;28;20037;-74
2023/09/26 06:48:06;;;;;;;27.65;11.30;;;;;;;-144.73;100.00;54473.38;5054605;28;20029;-73
2023/09/26 06:50:32;;;;;;;35.60;12.45;;;;;;;-144.73;100.00;54498.00;5033246;28;20044;-74
2023/09/26 06:52:57;;;;;;;21.48;10.38;;;;;;;-144.73;100.00;54463.13;5034972;28;20108;-69
2023/09/26 06:55:23;;;;;;;21.02;11.18;;;;;;;-144.73;100.00;54510.31;5029789;28;20123;-69
2023/09/26 06:57:48;;;;;;;29.65;12.05;;;;;;;-144.73;100.00;54440.53;5033354;28;20028;-69
2023/09/26 07:00:16;;;;;;;21.33;11.10;;;;;;;-144.73;100.00;54477.47;5033559;28;20036;-69
2023/09/26 07:02:46;;;;;;;22.85;10.70;;;;;;;-144.73;100.00;54477.47;5031100;28;20095;-69
2023/09/26 07:05:12;;;;;;;21.92;9.27;;;;;;;-144.73;100.00;54483.66;5055039;28;20056;-69
2023/09/26 07:07:38;;;;;;;19.50;10.05;;;;;;;-144.73;100.00;54469.28;5055763;28;20050;-69
2023/09/26 07:10:05;;;;;;;22.35;10.15;;;;;;;-144.73;100.00;54481.59;5069371;28;20040;-68
2023/09/26 07:12:30;;;;;;;26.75;8.98;;;;;;;-144.73;100.00;54485.69;5035881;28;20029;-69
2023/09/26 07:14:56;;;;;;;17.00;7.82;;;;;;;-144.73;100.00;54481.59;5050555;28;20025;-69
2023/09/26 07:17:22;;;;;;;15.30;7.80;;;;;;;-144.73;100.00;54469.28;5009063;28;20043;-69
2023/09/26 07:19:49;;;;;;;13.48;8.18;;;;;;;-144.73;100.00;54448.75;5030581;28;20025;-69
2023/09/26 07:22:15;;;;;;;17.00;7.28;;;;;;;-144.73;100.00;54454.91;5050617;28;20017;-69
2023/09/26 07:24:40;;;;;;;20.98;8.13;;;;;;;-144.73;100.00;54465.16;5030986;28;20504;-69
2023/09/26 07:27:07;;;;;;;22.77;8.98;;;;;;;-144.73;100.00;54477.47;5031151;28;20017;-69
2023/09/26 07:29:32;;;;;;;18.08;9.43;;;;;;;-144.73;100.00;54465.16;5034882;28;20056;-69
2023/09/26 07:31:58;;;;;;;18.58;7.65;;;;;;;-144.73;100.00;54502.13;5053553;28;20024;-69
2023/09/26 07:34:23;;;;;;;17.50;7.45;;;;;;;-144.73;100.00;54463.13;5033945;28;20072;-69
2023/09/26 07:36:48;;;;;;;16.27;7.63;;;;;;;-144.73;100.00;54473.38;5055950;28;20033;-69
2023/09/26 07:39:17;;;;;;;15.25;6.55;;;;;;;-144.73;100.00;54456.97;5040812;28;20468;-69
2023/09/26 07:41:43;;;;;;;9.23;6.47;;;;;;;-144.73;100.00;54442.59;5048286;28;20017;-69
2023/09/26 07:44:09;;;;;;;15.43;7.00;;;;;;;-144.73;100.00;54461.06;5037935;28;20044;-69
2023/09/26 07:46:34;;;;;;;18.02;6.60;;;;;;;-144.73;100.00;54452.84;5031314;28;20029;-69
2023/09/26 07:49:00;;;;;;;17.50;7.32;;;;;;;-144.73;100.00;54493.91;5046618;28;20036;-69
2023/09/26 07:51:25;;;;;;;15.52;6.90;;;;;;;-144.73;100.00;54465.16;5032776;28;20029;-69
2023/09/26 07:53:51;;;;;;;15.00;6.80;;;;;;;-144.73;100.00;54469.28;5038450;28;20057;-69
2023/09/26 07:56:16;;;;;;;11.70;6.40;;;;;;;-144.73;100.00;54479.53;5029460;28;20044;-69
2023/09/26 07:58:42;;;;;;;20.08;7.28;;;;;;;-144.73;100.00;54481.59;5050299;28;20035;-69
2023/09/26 08:01:09;;;;;;;21.92;7.13;;;;;;;-144.73;100.00;54504.16;5053022;28;20448;-69
2023/09/26 08:03:35;;;;;;;23.15;7.55;;;;;;;-144.73;100.00;54448.75;5045803;28;20037;-69
2023/09/26 08:06:05;;;;;;;14.05;6.97;;;;;;;-144.73;100.00;54481.59;5058872;28;20036;-69
2023/09/26 08:08:32;;;;;;;15.10;6.15;;;;;;;-144.73;100.00;54473.38;5029349;28;20039;-69
2023/09/26 08:11:11;;;;;;;10.70;7.13;;;;;;;-144.73;100.00;54461.06;5049059;28;20018;-69
2023/09/26 08:13:41;;;;;;;14.38;6.80;;;;;;;-144.73;100.00;54485.69;5046044;28;20095;-69
2023/09/26 08:16:11;;;;;;;17.08;6.07;;;;;;;-144.73;100.00;54475.44;5037472;28;20170;-70
2023/09/26 08:18:46;;;;;;;11.75;7.05;;;;;;;-144.73;100.00;54469.28;5054780;28;20074;-69
2023/09/26 08:21:11;;;;;;;14.40;6.57;;;;;;;-144.73;100.00;54481.59;5057033;28;20024;-67
2023/09/26 08:23:37;;;;;;;21.00;7.15;;;;;;;-144.73;100.00;54420.00;5052333;28;20048;-70
2023/09/26 08:26:03;;;;;;;14.93;7.47;;;;;;;-144.73;100.00;54444.66;5052876;28;20207;-67
2023/09/26 08:28:38;;;;;;;16.75;6.60;;;;;;;-144.73;100.00;54422.06;5036218;28;20024;-69
2023/09/26 08:31:15;;;;;;;14.57;5.57;;;;;;;-144.73;100.00;54456.97;5037783;28;20542;-68
2023/09/26 08:33:43;;;;;;;14.82;6.63;;;;;;;-144.73;100.00;54493.91;5055748;28;20091;-68
2023/09/26 08:36:20;;;;;;;17.52;6.28;;;;;;;-144.73;100.00;54432.31;5035439;28;20483;-68
2023/09/26 08:38:46;;;;;;;13.57;6.18;;;;;;;-144.73;100.00;54481.59;5039272;28;20039;-68
2023/09/26 08:41:12;;;;;;;11.35;5.60;;;;;;;-144.73;100.00;54465.16;5052357;28;20172;-68
2023/09/26 08:43:37;;;;;;;12.48;5.50;;;;;;;-144.73;100.00;54483.66;5049799;28;20110;-69
2023/09/26 08:46:05;;;;;;;15.23;5.80;;;;;;;-144.73;100.00;54424.13;5037290;28;20021;-68
2023/09/26 08:48:32;;;;;;;13.80;5.13;;;;;;;-144.73;100.00;54413.84;5050530;28;20041;-68
2023/09/26 08:50:57;;;;;;;14.13;5.68;;;;;;;-144.73;100.00;54430.28;5029802;28;20090;-68
2023/09/26 08:53:22;;;;;;;8.13;4.40;;;;;;;-144.73;100.00;54461.06;5032681;28;20048;-68
2023/09/26 08:55:51;;;;;;;11.57;4.60;;;;;;;-144.73;100.00;54440.53;5053832;28;20028;-69
2023/09/26 08:58:17;;;;;;;16.42;5.22;;;;;;;-144.73;100.00;54444.66;5054246;28;20037;-69
2023/09/26 09:00:43;;;;;;;14.20;4.15;;;;;;;-144.73;98.52;54399.50;5047803;28;20096;-68
2023/09/26 09:03:09;;;;;;;14.20;3.67;;;;;;;-144.73;100.00;54448.75;5027245;28;20079;-68
2023/09/26 09:05:34;;;;;;;11.25;3.90;;;;;;;-144.73;99.21;54446.69;5056688;28;20020;-69
2023/09/26 09:08:00;;;;;;;12.05;3.95;;;;;;;-144.73;99.35;54461.06;5030621;28;20060;-68
2023/09/26 09:10:25;;;;;;;10.13;3.83;;;;;;;-144.73;95.95;54444.66;5025091;28;20048;-68
2023/09/26 09:13:03;;;;;;;7.40;3.67;;;;;;;-144.73;93.14;54420.00;5019931;28;20041;-69
2023/09/26 09:15:29;;;;;;;9.98;4.47;;;;;;;-144.73;90.27;54407.69;5040790;28;20017;-69
2023/09/26 09:17:54;;;;;;;8.88;3.78;;;;;;;-144.73;87.54;54452.84;5024158;28;20032;-69
2023/09/26 09:20:36;;;;;;;11.80;5.10;;;;;;;-144.73;86.54;54383.06;5040698;28;20383;-69
2023/09/26 09:23:04;;;;;;;18.73;5.05;;;;;;;-144.73;85.05;54428.22;5023002;28;20112;-69
2023/09/26 09:25:32;;;;;;;17.25;5.50;;;;;;;-144.73;87.07;54407.69;5019854;28;20017;-69
2023/09/26 09:28:01;;;;;;;11.68;5.50;;;;;;;-144.73;90.40;54411.81;5013635;28;20029;-69
2023/09/26 09:30:28;;;;;;;11.80;6.07;;;;;;;-144.73;88.70;54440.53;5027109;28;20013;-69
2023/09/26 09:32:53;;;;;;;9.07;4.70;;;;;;;-144.73;88.61;54440.53;5037773;28;20033;-69
2023/09/26 09:35:19;;;;;;;6.80;5.13;;;;;;;-144.73;89.57;54432.31;5026065;28;20116;-69
2023/09/26 09:37:46;;;;;;;12.35;6.05;;;;;;;-144.73;91.15;54440.53;5041327;28;20033;-70
2023/09/26 09:40:19;;;;;;;15.98;5.53;;;;;;;-144.73;92.39;54432.31;5022627;28;20472;-69
2023/09/26 09:42:48;;;;;;;10.50;5.18;;;;;;;-144.73;91.56;54391.28;5023746;28;20106;-70
2023/09/26 09:45:14;;;;;;;9.48;6.05;;;;;;;-144.73;86.05;54415.91;5039969;28;20115;-69
2023/09/26 09:47:42;;;;;;;11.30;5.70;;;;;;;-144.73;86.48;54434.38;5039610;28;20107;-70
2023/09/26 09:50:08;;;;;;;8.75;4.55;;;;;;;-144.73;85.01;54348.19;5038216;28;20080;-70
2023/09/26 09:52:35;;;;;;;8.18;4.65;;;;;;;-144.73;80.71;54391.28;5039972;28;20029;-69
2023/09/26 09:55:07;;;;;;;8.20;5.03;;;;;;;-144.73;78.31;54420.00;5023313;28;20028;-69
2023/09/26 09:57:35;;;;;;;20.27;4.82;;;;;;;-144.73;79.24;54448.75;5030226;28;20025;-69
2023/09/26 10:00:01;;;;;;;15.65;4.75;;;;;;;-144.73;75.94;54391.28;5023298;28;20029;-69
2023/09/26 10:02:27;;;;;;;14.40;4.80;;;;;;;-144.73;76.15;54362.53;5020643;28;20013;-69
2023/09/26 10:04:56;;;;;;;20.98;4.95;;;;;;;-144.73;75.47;54387.19;5021254;28;20056;-69
2023/09/26 10:07:27;;;;;;;13.55;4.47;;;;;;;-144.73;76.85;54456.97;5017002;28;20491;-68
2023/09/26 10:09:54;;;;;;;10.68;4.43;;;;;;;-144.73;79.78;54411.81;5040406;28;20037;-68
2023/09/26 10:12:21;;;;;;;11.50;4.72;;;;;;;-144.73;78.52;54387.19;5020583;28;20021;-69
2023/09/26 10:14:46;;;;;;;10.70;3.90;;;;;;;-144.73;78.50;54407.69;5023698;28;20033;-68
2023/09/26 10:17:14;;;;;;;6.25;3.90;;;;;;;-144.73;76.74;54411.81;5030746;28;20037;-69
2023/09/26 10:19:40;;;;;;;8.70;3.30;;;;;;;-144.73;77.94;54374.84;5028195;28;20037;-68
2023/09/26 10:22:15;;;;;;;9.32;3.60;;;;;;;-144.73;76.21;54374.84;5030801;28;20020;-69
2023/09/26 10:24:47;;;;;;;8.30;3.30;;;;;;;-144.73;75.78;54407.69;5055600;28;20422;-68
2023/09/26 10:27:12;;;;;;;8.25;3.13;;;;;;;-144.73;79.15;54432.31;5025245;28;20144;-70
2023/09/26 10:29:38;;;;;;;11.93;4.28;;;;;;;-144.73;80.28;54444.66;5029206;28;20587;-69
2023/09/26 10:32:07;;;;;;;8.88;3.97;;;;;;;-144.73;80.09;54430.28;5021666;28;20436;-69
2023/09/26 10:34:34;;;;;;;6.72;3.60;;;;;;;-144.73;79.13;54411.81;5050321;28;20029;-69
2023/09/26 10:36:59;;;;;;;15.15;3.78;;;;;;;-144.73;81.01;54440.53;5030068;28;20020;-69
2023/09/26 10:39:39;;;;;;;8.68;3.55;;;;;;;-144.73;82.73;54440.53;5051182;28;20025;-69
2023/09/26 10:42:18;;;;;;;11.73;4.70;;;;;;;-144.73;84.08;54440.53;5030639;28;20032;-69
2023/09/26 10:44:45;;;;;;;8.27;3.88;;;;;;;-144.73;85.05;54448.75;5032077;28;20029;-69
2023/09/26 10:47:13;;;;;;;9.07;3.80;;;;;;;-144.73;83.81;54420.00;5046141;28;20017;-69
2023/09/26 10:49:39;;;;;;;13.18;4.10;;;;;;;-144.73;86.46;54424.13;5045324;28;20113;-69
2023/09/26 10:52:08;;;;;;;9.50;3.80;;;;;;;-144.73;83.13;54411.81;5023245;28;20025;-70
2023/09/26 10:54:35;;;;;;;10.32;4.45;;;;;;;-144.73;81.13;54415.91;5025463;28;20087;-70
2023/09/26 10:57:01;;;;;;;12.77;4.57;;;;;;;-144.73;81.84;54397.44;5045773;28;20074;-69
2023/09/26 10:59:31;;;;;;;11.80;3.97;;;;;;;-144.73;77.35;54413.84;5026875;28;20029;-69